Time;durP1;ratioP1;P1;durP2;ratioP2;P2;SDS_P1;SDS_P2;PMS_P1;PMS_P2;Temp;Humidity;BMP_temperature;BMP_pressure;BME280_temperature;BME280_humidity;BME280_pressure;Samples;Min_cycle;Max_cycle;Signal;HPM_P1;HPM_P2
2022/07/15 00:01:31;;;;;;;;;14.67;14.33;;;;;;;;6488724;39;8964;-64
2022/07/15 00:07:35;;;;;;;;;15.00;15.00;;;;;;;;6490655;39;8935;-64
2022/07/15 00:13:37;;;;;;;;;15.75;15.00;;;;;;;;6492808;39;8886;-64
2022/07/15 00:19:39;;;;;;;;;14.25;14.25;;;;;;;;6489022;39;8917;-63
2022/07/15 00:25:41;;;;;;;;;13.00;12.67;;;;;;;;6488880;39;9363;-63
2022/07/15 00:31:44;;;;;;;;;17.50;16.00;;;;;;;;6489004;39;8862;-64
2022/07/15 00:37:49;;;;;;;;;13.33;13.33;;;;;;;;6488957;39;8870;-64
2022/07/15 00:43:52;;;;;;;;;13.00;11.00;;;;;;;;6488672;46;8960;-64
2022/07/15 00:49:54;;;;;;;;;14.67;14.67;;;;;;;;6489291;39;9579;-64
2022/07/15 00:56:02;;;;;;;;;13.00;12.00;;;;;;;;6488611;31;9004;-63
2022/07/15 01:02:11;;;;;;;;;11.33;10.33;;;;;;;;6489197;39;9076;-63
2022/07/15 01:08:14;;;;;;;;;14.00;14.00;;;;;;;;6488549;46;8900;-63
2022/07/15 01:14:17;;;;;;;;;11.00;11.00;;;;;;;;6489467;39;8907;-63
2022/07/15 01:20:22;;;;;;;;;12.00;12.00;;;;;;;;6489342;39;9584;-63
2022/07/15 01:26:33;;;;;;;;;10.00;9.67;;;;;;;;6488388;31;8953;-62
2022/07/15 01:32:36;;;;;;;;;9.00;8.67;;;;;;;;6488262;39;8940;-63
2022/07/15 01:38:38;;;;;;;;;9.67;9.67;;;;;;;;6490862;31;8877;-64
2022/07/15 01:44:51;;;;;;;;;12.67;11.33;;;;;;;;6489933;39;8838;-63
2022/07/15 01:50:53;;;;;;;;;8.67;7.33;;;;;;;;6488422;39;9163;-64
2022/07/15 01:56:57;;;;;;;;;7.67;7.67;;;;;;;;6488313;39;8866;-62
2022/07/15 02:03:00;;;;;;;;;9.00;9.00;;;;;;;;6487445;46;8972;-63
2022/07/15 02:09:05;;;;;;;;;8.33;8.33;;;;;;;;6487570;46;8874;-64
2022/07/15 02:15:12;;;;;;;;;10.67;10.67;;;;;;;;6533211;36;8999;-65
2022/07/15 02:21:21;;;;;;;;;8.00;8.00;;;;;;;;6487764;46;8967;-64
2022/07/15 02:27:27;;;;;;;;;10.33;9.00;;;;;;;;6488440;46;9012;-63
2022/07/15 02:33:29;;;;;;;;;8.00;8.00;;;;;;;;6488648;39;8932;-64
2022/07/15 02:39:31;;;;;;;;;8.67;6.33;;;;;;;;6488298;36;9491;-64
2022/07/15 02:45:35;;;;;;;;;5.33;5.33;;;;;;;;6488612;39;8900;-64
2022/07/15 02:51:42;;;;;;;;;8.00;8.00;;;;;;;;6487805;31;8993;-66
2022/07/15 02:57:45;;;;;;;;;13.00;10.00;;;;;;;;6488051;46;8876;-64
2022/07/15 03:03:53;;;;;;;;;7.67;7.67;;;;;;;;6487532;46;8924;-65
2022/07/15 03:09:58;;;;;;;;;9.00;9.00;;;;;;;;6489605;47;8911;-64
2022/07/15 03:16:01;;;;;;;;;8.00;6.67;;;;;;;;6489892;46;8875;-64
2022/07/15 03:22:07;;;;;;;;;7.67;7.67;;;;;;;;6487125;47;8886;-65
2022/07/15 03:28:11;;;;;;;;;10.67;9.67;;;;;;;;6487705;39;9531;-63
2022/07/15 03:34:16;;;;;;;;;10.00;8.33;;;;;;;;6487719;39;8892;-63
2022/07/15 03:40:21;;;;;;;;;7.67;7.67;;;;;;;;6487435;39;8988;-64
2022/07/15 03:46:26;;;;;;;;;6.00;6.00;;;;;;;;6487463;39;9575;-64
2022/07/15 03:52:34;;;;;;;;;8.33;8.33;;;;;;;;6487912;39;8912;-64
2022/07/15 03:58:37;;;;;;;;;9.33;8.00;;;;;;;;6488959;31;9055;-64
2022/07/15 04:04:39;;;;;;;;;8.00;8.00;;;;;;;;6464107;31;9153;-64
2022/07/15 04:10:42;;;;;;;;;6.67;6.67;;;;;;;;6489817;46;8847;-64
2022/07/15 04:16:45;;;;;;;;;8.67;8.67;;;;;;;;6491459;39;8968;-63
